sensor_id;sensor_type;location;lat;lon;timestamp;pressure;altitude;pressure_sealevel;temperature;humidity
80323;BME280;69636;52.372;13.610;2023-06-19T00:02:02;101121.97;;;15.88;85.11
80323;BME280;69636;52.372;13.610;2023-06-19T00:04:29;101122.34;;;15.85;85.10
80323;BME280;69636;52.372;13.610;2023-06-19T00:06:59;101122.53;;;16.07;84.13
80323;BME280;69636;52.372;13.610;2023-06-19T00:09:28;101118.59;;;15.94;84.78
80323;BME280;69636;52.372;13.610;2023-06-19T00:11:56;101119.13;;;15.90;85.13
80323;BME280;69636;52.372;13.610;2023-06-19T00:14:23;101120.69;;;15.84;85.50
80323;BME280;69636;52.372;13.610;2023-06-19T00:16:50;101123.56;;;15.83;85.65
80323;BME280;69636;52.372;13.610;2023-06-19T00:19:18;101123.78;;;15.96;85.14
80323;BME280;69636;52.372;13.610;2023-06-19T00:21:46;101122.34;;;16.08;84.66
80323;BME280;69636;52.372;13.610;2023-06-19T00:24:17;101114.00;;;16.03;84.42
80323;BME280;69636;52.372;13.610;2023-06-19T00:26:45;101115.56;;;15.98;85.06
80323;BME280;69636;52.372;13.610;2023-06-19T00:29:13;101118.94;;;15.91;85.40
80323;BME280;69636;52.372;13.610;2023-06-19T00:31:40;101127.16;;;15.90;85.42
80323;BME280;69636;52.372;13.610;2023-06-19T00:34:07;101126.16;;;15.91;85.49
80323;BME280;69636;52.372;13.610;2023-06-19T00:36:35;101114.91;;;15.95;85.19
80323;BME280;69636;52.372;13.610;2023-06-19T00:39:02;101119.00;;;16.06;84.71
80323;BME280;69636;52.372;13.610;2023-06-19T00:41:30;101114.66;;;16.05;85.00
80323;BME280;69636;52.372;13.610;2023-06-19T00:44:01;101119.00;;;16.06;84.87
80323;BME280;69636;52.372;13.610;2023-06-19T00:46:29;101118.06;;;15.99;85.06
80323;BME280;69636;52.372;13.610;2023-06-19T00:48:57;101108.66;;;16.03;85.79
80323;BME280;69636;52.372;13.610;2023-06-19T00:51:24;101125.03;;;16.08;85.47
80323;BME280;69636;52.372;13.610;2023-06-19T00:53:52;101124.63;;;16.11;85.10
80323;BME280;69636;52.372;13.610;2023-06-19T00:56:20;101122.91;;;16.18;85.15
80323;BME280;69636;52.372;13.610;2023-06-19T00:58:47;101130.88;;;16.26;84.83
80323;BME280;69636;52.372;13.610;2023-06-19T01:01:16;101123.69;;;16.27;84.46
80323;BME280;69636;52.372;13.610;2023-06-19T01:03:43;101121.66;;;16.44;84.04
80323;BME280;69636;52.372;13.610;2023-06-19T01:06:15;101127.72;;;16.60;83.83
80323;BME280;69636;52.372;13.610;2023-06-19T01:08:58;101115.66;;;16.42;83.74
80323;BME280;69636;52.372;13.610;2023-06-19T01:11:32;101118.34;;;16.42;84.40
80323;BME280;69636;52.372;13.610;2023-06-19T01:14:06;101116.78;;;16.33;84.43
80323;BME280;69636;52.372;13.610;2023-06-19T01:16:37;101112.78;;;16.28;84.45
80323;BME280;69636;52.372;13.610;2023-06-19T01:19:10;101105.28;;;16.24;84.72
80323;BME280;69636;52.372;13.610;2023-06-19T01:21:38;101108.78;;;16.62;83.05
80323;BME280;69636;52.372;13.610;2023-06-19T01:24:08;101100.00;;;16.68;82.83
80323;BME280;69636;52.372;13.610;2023-06-19T01:26:35;101102.25;;;16.42;83.51
80323;BME280;69636;52.372;13.610;2023-06-19T01:29:03;101102.38;;;16.34;84.16
80323;BME280;69636;52.372;13.610;2023-06-19T01:31:33;101101.41;;;16.26;84.56
80323;BME280;69636;52.372;13.610;2023-06-19T01:34:04;101104.81;;;16.20;85.26
80323;BME280;69636;52.372;13.610;2023-06-19T01:36:35;101099.53;;;16.12;85.71
80323;BME280;69636;52.372;13.610;2023-06-19T01:39:03;101098.16;;;16.16;85.43
80323;BME280;69636;52.372;13.610;2023-06-19T01:41:33;101092.31;;;16.36;83.94
80323;BME280;69636;52.372;13.610;2023-06-19T01:44:02;101094.69;;;16.31;83.99
80323;BME280;69636;52.372;13.610;2023-06-19T01:46:29;101085.41;;;16.18;85.27
80323;BME280;69636;52.372;13.610;2023-06-19T01:48:57;101085.41;;;16.18;85.24
80323;BME280;69636;52.372;13.610;2023-06-19T01:51:24;101083.38;;;16.06;85.05
80323;BME280;69636;52.372;13.610;2023-06-19T01:53:51;101087.28;;;15.95;85.86
80323;BME280;69636;52.372;13.610;2023-06-19T01:56:19;101083.97;;;15.93;85.86
80323;BME280;69636;52.372;13.610;2023-06-19T01:58:48;101081.88;;;16.03;85.15
80323;BME280;69636;52.372;13.610;2023-06-19T02:01:16;101073.66;;;16.05;84.95
80323;BME280;69636;52.372;13.610;2023-06-19T02:03:45;101080.56;;;15.99;85.29
80323;BME280;69636;52.372;13.610;2023-06-19T02:06:12;101077.56;;;15.79;85.86
80323;BME280;69636;52.372;13.610;2023-06-19T02:08:40;101076.44;;;15.74;86.32
80323;BME280;69636;52.372;13.610;2023-06-19T02:11:08;101063.63;;;16.21;84.21
80323;BME280;69636;52.372;13.610;2023-06-19T02:13:36;101066.69;;;16.33;83.67
80323;BME280;69636;52.372;13.610;2023-06-19T02:16:09;101066.84;;;16.17;83.90
80323;BME280;69636;52.372;13.610;2023-06-19T02:18:36;101063.56;;;15.92;85.83
80323;BME280;69636;52.372;13.610;2023-06-19T02:21:03;101070.00;;;15.83;86.54
80323;BME280;69636;52.372;13.610;2023-06-19T02:23:31;101057.47;;;15.83;86.29
80323;BME280;69636;52.372;13.610;2023-06-19T02:25:59;101057.25;;;16.08;85.17
80323;BME280;69636;52.372;13.610;2023-06-19T02:28:28;101055.09;;;16.03;85.42
80323;BME280;69636;52.372;13.610;2023-06-19T02:30:55;101059.31;;;15.83;86.37
80323;BME280;69636;52.372;13.610;2023-06-19T02:33:24;101062.88;;;15.75;86.77
80323;BME280;69636;52.372;13.610;2023-06-19T02:35:52;101060.06;;;15.69;86.88
80323;BME280;69636;52.372;13.610;2023-06-19T02:38:20;101058.75;;;15.65;86.92
80323;BME280;69636;52.372;13.610;2023-06-19T02:40:48;101054.31;;;15.57;86.95
80323;BME280;69636;52.372;13.610;2023-06-19T02:43:15;101056.63;;;15.83;86.17
80323;BME280;69636;52.372;13.610;2023-06-19T02:45:42;101057.34;;;15.77;86.03
80323;BME280;69636;52.372;13.610;2023-06-19T02:48:09;101045.72;;;15.61;86.92
80323;BME280;69636;52.372;13.610;2023-06-19T02:50:38;101048.59;;;15.60;87.56
80323;BME280;69636;52.372;13.610;2023-06-19T02:53:05;101051.13;;;15.53;87.83
80323;BME280;69636;52.372;13.610;2023-06-19T02:55:33;101042.66;;;15.42;87.69
80323;BME280;69636;52.372;13.610;2023-06-19T02:58:00;101051.13;;;15.53;87.37
80323;BME280;69636;52.372;13.610;2023-06-19T03:00:28;101051.78;;;15.55;87.36
80323;BME280;69636;52.372;13.610;2023-06-19T03:02:55;101050.66;;;15.50;87.90
80323;BME280;69636;52.372;13.610;2023-06-19T03:05:25;101051.31;;;15.52;87.34
80323;BME280;69636;52.372;13.610;2023-06-19T03:07:54;101050.13;;;15.54;87.11
80323;BME280;69636;52.372;13.610;2023-06-19T03:10:23;101040.09;;;15.56;86.95
80323;BME280;69636;52.372;13.610;2023-06-19T03:12:50;101044.16;;;15.44;87.63
80323;BME280;69636;52.372;13.610;2023-06-19T03:15:19;101048.84;;;15.42;88.06
80323;BME280;69636;52.372;13.610;2023-06-19T03:17:47;101049.28;;;15.31;88.30
80323;BME280;69636;52.372;13.610;2023-06-19T03:20:16;101053.81;;;15.53;87.34
80323;BME280;69636;52.372;13.610;2023-06-19T03:22:43;101056.44;;;15.61;87.22
80323;BME280;69636;52.372;13.610;2023-06-19T03:25:12;101057.75;;;15.66;86.52
80323;BME280;69636;52.372;13.610;2023-06-19T03:27:39;101061.13;;;15.59;87.24
80323;BME280;69636;52.372;13.610;2023-06-19T03:30:07;101063.44;;;15.63;87.10
80323;BME280;69636;52.372;13.610;2023-06-19T03:32:34;101061.56;;;15.71;86.95
80323;BME280;69636;52.372;13.610;2023-06-19T03:35:02;101068.88;;;15.77;86.78
80323;BME280;69636;52.372;13.610;2023-06-19T03:37:30;101067.59;;;15.88;86.23
80323;BME280;69636;52.372;13.610;2023-06-19T03:39:58;101066.31;;;15.84;86.79
80323;BME280;69636;52.372;13.610;2023-06-19T03:42:28;101060.00;;;15.77;87.12
80323;BME280;69636;52.372;13.610;2023-06-19T03:44:55;101069.06;;;15.76;87.50
80323;BME280;69636;52.372;13.610;2023-06-19T03:47:23;101076.56;;;15.80;87.63
80323;BME280;69636;52.372;13.610;2023-06-19T03:49:50;101079.50;;;15.85;87.45
80323;BME280;69636;52.372;13.610;2023-06-19T03:52:21;101081.47;;;15.91;87.10
80323;BME280;69636;52.372;13.610;2023-06-19T03:54:49;101071.91;;;16.12;86.46
80323;BME280;69636;52.372;13.610;2023-06-19T03:57:17;101072.28;;;16.09;86.67
80323;BME280;69636;52.372;13.610;2023-06-19T03:59:45;101074.41;;;16.13;86.90
80323;BME280;69636;52.372;13.610;2023-06-19T04:02:13;101081.59;;;16.13;87.12
80323;BME280;69636;52.372;13.610;2023-06-19T04:04:40;101080.28;;;16.32;86.55
80323;BME280;69636;52.372;13.610;2023-06-19T04:07:07;101084.53;;;16.41;86.13
80323;BME280;69636;52.372;13.610;2023-06-19T04:09:35;101086.53;;;16.39;86.03
80323;BME280;69636;52.372;13.610;2023-06-19T04:12:03;101082.78;;;16.48;85.91
80323;BME280;69636;52.372;13.610;2023-06-19T04:14:30;101068.84;;;16.67;84.92
80323;BME280;69636;52.372;13.610;2023-06-19T04:17:02;101074.78;;;16.77;84.54
80323;BME280;69636;52.372;13.610;2023-06-19T04:19:29;101063.13;;;16.85;84.29
80323;BME280;69636;52.372;13.610;2023-06-19T04:21:56;101051.44;;;16.92;83.34
80323;BME280;69636;52.372;13.610;2023-06-19T04:24:24;101047.22;;;16.83;83.92
80323;BME280;69636;52.372;13.610;2023-06-19T04:26:51;101042.22;;;16.80;83.76
80323;BME280;69636;52.372;13.610;2023-06-19T04:29:20;101044.59;;;17.05;83.38
80323;BME280;69636;52.372;13.610;2023-06-19T04:31:48;101047.91;;;17.07;82.33
80323;BME280;69636;52.372;13.610;2023-06-19T04:34:17;101044.78;;;17.03;82.12
80323;BME280;69636;52.372;13.610;2023-06-19T04:36:45;101056.25;;;16.97;82.35
80323;BME280;69636;52.372;13.610;2023-06-19T04:39:12;101059.41;;;17.01;82.39
80323;BME280;69636;52.372;13.610;2023-06-19T04:41:39;101058.47;;;17.08;81.31
80323;BME280;69636;52.372;13.610;2023-06-19T04:44:09;101060.44;;;17.21;80.59
80323;BME280;69636;52.372;13.610;2023-06-19T04:46:36;101061.09;;;17.23;80.89
80323;BME280;69636;52.372;13.610;2023-06-19T04:49:05;101064.16;;;17.20;81.65
80323;BME280;69636;52.372;13.610;2023-06-19T04:51:34;101061.38;;;17.28;81.43
80323;BME280;69636;52.372;13.610;2023-06-19T04:54:02;101067.28;;;17.38;80.33
80323;BME280;69636;52.372;13.610;2023-06-19T04:56:29;101072.38;;;17.33;80.46
80323;BME280;69636;52.372;13.610;2023-06-19T04:58:58;101072.09;;;17.28;80.81
80323;BME280;69636;52.372;13.610;2023-06-19T05:01:26;101071.38;;;17.19;80.62
80323;BME280;69636;52.372;13.610;2023-06-19T05:03:56;101081.41;;;17.11;81.57
80323;BME280;69636;52.372;13.610;2023-06-19T05:06:23;101092.84;;;17.19;80.09
80323;BME280;69636;52.372;13.610;2023-06-19T05:08:52;101086.53;;;17.27;79.72
80323;BME280;69636;52.372;13.610;2023-06-19T05:11:19;101088.88;;;17.51;79.04
80323;BME280;69636;52.372;13.610;2023-06-19T05:13:47;101084.72;;;17.49;79.33
80323;BME280;69636;52.372;13.610;2023-06-19T05:16:14;101091.31;;;17.68;78.92
80323;BME280;69636;52.372;13.610;2023-06-19T05:18:43;101093.25;;;17.74;78.44
80323;BME280;69636;52.372;13.610;2023-06-19T05:21:12;101093.91;;;17.76;78.65
80323;BME280;69636;52.372;13.610;2023-06-19T05:23:40;101095.94;;;17.74;78.71
80323;BME280;69636;52.372;13.610;2023-06-19T05:26:08;101086.19;;;17.94;77.93
80323;BME280;69636;52.372;13.610;2023-06-19T05:28:36;101097.56;;;17.89;77.63
80323;BME280;69636;52.372;13.610;2023-06-19T05:31:03;101096.66;;;17.82;78.52
80323;BME280;69636;52.372;13.610;2023-06-19T05:33:30;101095.88;;;17.88;77.89
80323;BME280;69636;52.372;13.610;2023-06-19T05:35:58;101097.41;;;18.19;76.56
80323;BME280;69636;52.372;13.610;2023-06-19T05:38:25;101098.47;;;18.03;77.69
80323;BME280;69636;52.372;13.610;2023-06-19T05:40:52;101106.66;;;18.16;77.38
80323;BME280;69636;52.372;13.610;2023-06-19T05:43:21;101095.28;;;18.14;75.87
80323;BME280;69636;52.372;13.610;2023-06-19T05:45:48;101100.88;;;18.19;76.30
80323;BME280;69636;52.372;13.610;2023-06-19T05:48:16;101104.47;;;18.26;74.88
80323;BME280;69636;52.372;13.610;2023-06-19T05:50:43;101103.38;;;18.21;75.58
80323;BME280;69636;52.372;13.610;2023-06-19T05:53:10;101103.69;;;18.33;75.26
80323;BME280;69636;52.372;13.610;2023-06-19T05:55:41;101105.44;;;18.47;74.72
80323;BME280;69636;52.372;13.610;2023-06-19T05:58:11;101108.47;;;18.37;74.69
80323;BME280;69636;52.372;13.610;2023-06-19T06:00:40;101111.88;;;18.52;74.62
80323;BME280;69636;52.372;13.610;2023-06-19T06:03:09;101109.91;;;18.61;74.11
80323;BME280;69636;52.372;13.610;2023-06-19T06:05:38;101108.41;;;18.58;75.10
80323;BME280;69636;52.372;13.610;2023-06-19T06:08:05;101100.81;;;18.62;74.87
80323;BME280;69636;52.372;13.610;2023-06-19T06:10:33;101097.22;;;18.55;75.06
80323;BME280;69636;52.372;13.610;2023-06-19T06:13:03;101089.50;;;18.73;74.36
80323;BME280;69636;52.372;13.610;2023-06-19T06:15:30;101083.72;;;18.76;74.08
80323;BME280;69636;52.372;13.610;2023-06-19T06:17:59;101079.06;;;18.98;72.62
80323;BME280;69636;52.372;13.610;2023-06-19T06:20:26;101083.41;;;18.92;73.07
80323;BME280;69636;52.372;13.610;2023-06-19T06:22:54;101084.94;;;18.67;74.48
80323;BME280;69636;52.372;13.610;2023-06-19T06:25:21;101096.91;;;18.64;74.48
80323;BME280;69636;52.372;13.610;2023-06-19T06:27:49;101098.13;;;18.62;73.90
80323;BME280;69636;52.372;13.610;2023-06-19T06:30:18;101108.13;;;18.75;73.33
80323;BME280;69636;52.372;13.610;2023-06-19T06:32:46;101104.84;;;18.79;73.89
80323;BME280;69636;52.372;13.610;2023-06-19T06:35:15;101096.28;;;19.04;72.23
80323;BME280;69636;52.372;13.610;2023-06-19T06:37:43;101097.94;;;19.05;72.77
80323;BME280;69636;52.372;13.610;2023-06-19T06:40:10;101096.31;;;19.10;72.62
80323;BME280;69636;52.372;13.610;2023-06-19T06:42:38;101093.84;;;19.15;72.31
80323;BME280;69636;52.372;13.610;2023-06-19T06:45:06;101091.34;;;19.14;73.47
80323;BME280;69636;52.372;13.610;2023-06-19T06:47:34;101092.81;;;19.16;72.48
80323;BME280;69636;52.372;13.610;2023-06-19T06:50:02;101103.56;;;19.10;73.05
80323;BME280;69636;52.372;13.610;2023-06-19T06:52:30;101101.13;;;19.28;71.69
80323;BME280;69636;52.372;13.610;2023-06-19T06:54:57;101108.84;;;19.38;71.68
80323;BME280;69636;52.372;13.610;2023-06-19T06:57:25;101118.41;;;19.47;71.08
80323;BME280;69636;52.372;13.610;2023-06-19T06:59:52;101119.63;;;19.44;71.51
80323;BME280;69636;52.372;13.610;2023-06-19T07:02:19;101110.97;;;19.55;71.02
80323;BME280;69636;52.372;13.610;2023-06-19T07:04:48;101105.19;;;19.58;71.08
80323;BME280;69636;52.372;13.610;2023-06-19T07:07:15;101101.03;;;19.56;71.27
80323;BME280;69636;52.372;13.610;2023-06-19T07:09:44;101109.75;;;19.58;70.99
80323;BME280;69636;52.372;13.610;2023-06-19T07:12:11;101108.13;;;19.70;70.83
80323;BME280;69636;52.372;13.610;2023-06-19T07:14:38;101109.59;;;19.86;70.32
80323;BME280;69636;52.372;13.610;2023-06-19T07:17:08;101120.59;;;20.04;69.80
80323;BME280;69636;52.372;13.610;2023-06-19T07:19:36;101110.03;;;20.22;68.88
80323;BME280;69636;52.372;13.610;2023-06-19T07:22:04;101110.66;;;20.38;69.32
80323;BME280;69636;52.372;13.610;2023-06-19T07:24:31;101115.44;;;20.49;68.30
80323;BME280;69636;52.372;13.610;2023-06-19T07:27:00;101113.31;;;20.64;67.93
80323;BME280;69636;52.372;13.610;2023-06-19T07:29:27;101112.06;;;20.73;67.27
80323;BME280;69636;52.372;13.610;2023-06-19T07:31:55;101110.16;;;20.87;66.61
80323;BME280;69636;52.372;13.610;2023-06-19T07:34:22;101104.72;;;21.00;66.13
80323;BME280;69636;52.372;13.610;2023-06-19T07:36:50;101111.53;;;21.09;65.17
80323;BME280;69636;52.372;13.610;2023-06-19T07:39:17;101113.78;;;21.19;64.86
80323;BME280;69636;52.372;13.610;2023-06-19T07:41:45;101113.78;;;21.19;64.73
80323;BME280;69636;52.372;13.610;2023-06-19T07:44:13;101112.69;;;21.33;65.95
80323;BME280;69636;52.372;13.610;2023-06-19T07:46:41;101112.63;;;21.53;64.71
80323;BME280;69636;52.372;13.610;2023-06-19T07:49:08;101106.47;;;21.71;64.18
80323;BME280;69636;52.372;13.610;2023-06-19T07:51:35;101108.38;;;21.63;64.28
80323;BME280;69636;52.372;13.610;2023-06-19T07:54:02;101111.00;;;21.77;64.67
80323;BME280;69636;52.372;13.610;2023-06-19T07:56:31;101119.56;;;22.05;64.50
80323;BME280;69636;52.372;13.610;2023-06-19T07:58:58;101115.75;;;22.13;61.56
80323;BME280;69636;52.372;13.610;2023-06-19T08:01:27;101114.16;;;22.05;62.15
80323;BME280;69636;52.372;13.610;2023-06-19T08:03:54;101113.22;;;22.18;62.14
80323;BME280;69636;52.372;13.610;2023-06-19T08:06:24;101116.25;;;22.03;61.98
80323;BME280;69636;52.372;13.610;2023-06-19T08:08:51;101111.25;;;22.07;62.53
80323;BME280;69636;52.372;13.610;2023-06-19T08:11:19;101111.25;;;22.31;61.72
80323;BME280;69636;52.372;13.610;2023-06-19T08:13:46;101116.91;;;22.23;61.36
80323;BME280;69636;52.372;13.610;2023-06-19T08:16:13;101112.72;;;22.27;62.68
80323;BME280;69636;52.372;13.610;2023-06-19T08:18:43;101120.66;;;22.22;63.10
80323;BME280;69636;52.372;13.610;2023-06-19T08:21:12;101122.50;;;22.28;63.02
80323;BME280;69636;52.372;13.610;2023-06-19T08:23:40;101112.16;;;22.44;62.35
80323;BME280;69636;52.372;13.610;2023-06-19T08:26:09;101108.28;;;22.76;60.47
80323;BME280;69636;52.372;13.610;2023-06-19T08:28:37;101111.81;;;22.77;61.16
80323;BME280;69636;52.372;13.610;2023-06-19T08:31:04;101110.41;;;22.92;61.63
80323;BME280;69636;52.372;13.610;2023-06-19T08:33:35;101108.63;;;23.05;59.86
80323;BME280;69636;52.372;13.610;2023-06-19T08:36:04;101111.81;;;23.13;61.21
80323;BME280;69636;52.372;13.610;2023-06-19T08:38:31;101106.19;;;23.15;59.87
80323;BME280;69636;52.372;13.610;2023-06-19T08:40:59;101102.56;;;23.21;59.35
80323;BME280;69636;52.372;13.610;2023-06-19T08:43:26;101113.13;;;23.11;58.89
80323;BME280;69636;52.372;13.610;2023-06-19T08:45:59;101113.13;;;23.11;60.03
80323;BME280;69636;52.372;13.610;2023-06-19T08:48:30;101115.84;;;22.92;61.93
80323;BME280;69636;52.372;13.610;2023-06-19T08:50:57;101115.97;;;23.16;59.51
80323;BME280;69636;52.372;13.610;2023-06-19T08:53:26;101107.50;;;23.12;59.25
80323;BME280;69636;52.372;13.610;2023-06-19T08:55:53;101113.22;;;23.04;59.90
80323;BME280;69636;52.372;13.610;2023-06-19T08:58:23;101112.91;;;22.94;60.34
80323;BME280;69636;52.372;13.610;2023-06-19T09:00:50;101107.03;;;22.79;60.37
80323;BME280;69636;52.372;13.610;2023-06-19T09:03:20;101109.22;;;22.88;60.45
80323;BME280;69636;52.372;13.610;2023-06-19T09:05:48;101118.69;;;22.97;59.45
80323;BME280;69636;52.372;13.610;2023-06-19T09:08:15;101117.50;;;22.93;60.58
80323;BME280;69636;52.372;13.610;2023-06-19T09:10:54;101120.66;;;23.09;59.70
80323;BME280;69636;52.372;13.610;2023-06-19T09:13:23;101128.19;;;23.07;59.86
80323;BME280;69636;52.372;13.610;2023-06-19T09:15:57;101121.25;;;23.11;60.31
80323;BME280;69636;52.372;13.610;2023-06-19T09:18:25;101116.78;;;23.16;59.23
80323;BME280;69636;52.372;13.610;2023-06-19T09:20:54;101128.84;;;23.20;60.94
80323;BME280;69636;52.372;13.610;2023-06-19T09:23:23;101120.66;;;23.09;59.50
80323;BME280;69636;52.372;13.610;2023-06-19T09:25:53;101116.88;;;23.28;59.53
80323;BME280;69636;52.372;13.610;2023-06-19T09:28:22;101110.13;;;23.79;58.79
80323;BME280;69636;52.372;13.610;2023-06-19T09:30:54;101115.63;;;24.02;58.78
80323;BME280;69636;52.372;13.610;2023-06-19T09:33:22;101115.25;;;23.98;57.89
80323;BME280;69636;52.372;13.610;2023-06-19T09:35:50;101118.69;;;24.06;57.29
80323;BME280;69636;52.372;13.610;2023-06-19T09:38:17;101109.91;;;23.92;58.35
80323;BME280;69636;52.372;13.610;2023-06-19T09:40:48;101111.84;;;24.03;57.51
80323;BME280;69636;52.372;13.610;2023-06-19T09:45:49;101112.22;;;24.07;56.58
80323;BME280;69636;52.372;13.610;2023-06-19T09:48:19;101116.91;;;23.88;58.15
80323;BME280;69636;52.372;13.610;2023-06-19T09:50:48;101120.59;;;23.63;58.54
80323;BME280;69636;52.372;13.610;2023-06-19T09:53:18;101125.75;;;23.65;59.23
80323;BME280;69636;52.372;13.610;2023-06-19T09:55:47;101126.41;;;23.79;59.35
80323;BME280;69636;52.372;13.610;2023-06-19T09:58:15;101128.34;;;23.60;59.87
80323;BME280;69636;52.372;13.610;2023-06-19T10:00:45;101133.88;;;23.35;59.99
80323;BME280;69636;52.372;13.610;2023-06-19T10:03:15;101132.97;;;23.23;60.54
80323;BME280;69636;52.372;13.610;2023-06-19T10:05:44;101148.47;;;23.16;61.16
80323;BME280;69636;52.372;13.610;2023-06-19T10:08:13;101142.16;;;23.22;58.81
80323;BME280;69636;52.372;13.610;2023-06-19T10:10:46;101132.66;;;23.31;59.69
80323;BME280;69636;52.372;13.610;2023-06-19T10:13:15;101121.97;;;23.36;59.62
80323;BME280;69636;52.372;13.610;2023-06-19T10:15:44;101116.38;;;23.49;58.89
80323;BME280;69636;52.372;13.610;2023-06-19T10:18:14;101106.44;;;23.61;58.39
80323;BME280;69636;52.372;13.610;2023-06-19T10:20:41;101095.25;;;23.69;59.16
80323;BME280;69636;52.372;13.610;2023-06-19T10:23:15;101097.31;;;23.86;59.84
80323;BME280;69636;52.372;13.610;2023-06-19T10:25:44;101092.22;;;23.78;61.26
80323;BME280;69636;52.372;13.610;2023-06-19T10:28:19;101094.00;;;23.95;58.45
80323;BME280;69636;52.372;13.610;2023-06-19T10:30:53;101091.94;;;24.09;57.73
80323;BME280;69636;52.372;13.610;2023-06-19T10:33:21;101088.78;;;24.35;56.22
80323;BME280;69636;52.372;13.610;2023-06-19T10:35:49;101078.63;;;24.66;56.31
80323;BME280;69636;52.372;13.610;2023-06-19T10:38:16;101076.16;;;24.64;57.14
80323;BME280;69636;52.372;13.610;2023-06-19T10:40:44;101073.41;;;24.76;55.66
80323;BME280;69636;52.372;13.610;2023-06-19T10:43:12;101072.34;;;24.77;56.51
80323;BME280;69636;52.372;13.610;2023-06-19T10:45:39;101080.34;;;24.95;55.89
80323;BME280;69636;52.372;13.610;2023-06-19T10:48:08;101078.78;;;24.99;55.96
80323;BME280;69636;52.372;13.610;2023-06-19T10:50:37;101079.59;;;25.12;51.73
80323;BME280;69636;52.372;13.610;2023-06-19T10:53:04;101073.59;;;24.98;52.60
80323;BME280;69636;52.372;13.610;2023-06-19T10:55:31;101075.22;;;25.11;52.22
80323;BME280;69636;52.372;13.610;2023-06-19T10:58:02;101068.41;;;24.96;52.86
80323;BME280;69636;52.372;13.610;2023-06-19T11:00:32;101058.16;;;24.87;51.70
80323;BME280;69636;52.372;13.610;2023-06-19T11:03:00;101062.16;;;24.84;52.03
80323;BME280;69636;52.372;13.610;2023-06-19T11:05:29;101055.72;;;24.62;54.02
80323;BME280;69636;52.372;13.610;2023-06-19T11:07:57;101057.50;;;24.68;53.06
80323;BME280;69636;52.372;13.610;2023-06-19T11:10:26;101051.41;;;24.89;53.38
80323;BME280;69636;52.372;13.610;2023-06-19T11:12:54;101056.66;;;25.19;52.58
80323;BME280;69636;52.372;13.610;2023-06-19T11:15:28;101050.69;;;25.51;51.89
80323;BME280;69636;52.372;13.610;2023-06-19T11:17:57;101047.34;;;25.60;51.58
80323;BME280;69636;52.372;13.610;2023-06-19T11:20:24;101051.69;;;25.90;51.44
80323;BME280;69636;52.372;13.610;2023-06-19T11:22:59;101061.72;;;26.06;50.92
80323;BME280;69636;52.372;13.610;2023-06-19T11:25:35;101046.53;;;26.27;50.90
80323;BME280;69636;52.372;13.610;2023-06-19T11:28:03;101042.03;;;26.54;50.43
80323;BME280;69636;52.372;13.610;2023-06-19T11:30:32;101045.66;;;27.52;48.37
80323;BME280;69636;52.372;13.610;2023-06-19T11:33:00;101040.38;;;28.42;45.94
80323;BME280;69636;52.372;13.610;2023-06-19T11:35:32;101038.25;;;28.54;46.57
80323;BME280;69636;52.372;13.610;2023-06-19T11:38:01;101035.72;;;28.00;45.07
80323;BME280;69636;52.372;13.610;2023-06-19T11:40:39;101035.53;;;27.21;46.70
80323;BME280;69636;52.372;13.610;2023-06-19T11:43:06;101038.72;;;26.69;46.85
80323;BME280;69636;52.372;13.610;2023-06-19T11:45:33;101034.44;;;26.56;48.27
80323;BME280;69636;52.372;13.610;2023-06-19T11:48:11;101029.56;;;26.20;51.21
80323;BME280;69636;52.372;13.610;2023-06-19T11:50:38;101034.28;;;26.08;49.24
80323;BME280;69636;52.372;13.610;2023-06-19T11:53:07;101028.09;;;26.12;49.65
80323;BME280;69636;52.372;13.610;2023-06-19T11:55:34;101028.25;;;26.22;50.16
80323;BME280;69636;52.372;13.610;2023-06-19T11:58:05;101032.66;;;26.28;48.88
80323;BME280;69636;52.372;13.610;2023-06-19T12:00:32;101027.34;;;26.33;48.85
80323;BME280;69636;52.372;13.610;2023-06-19T12:02:59;101027.69;;;26.20;51.55
80323;BME280;69636;52.372;13.610;2023-06-19T12:05:27;101038.22;;;26.00;50.12
80323;BME280;69636;52.372;13.610;2023-06-19T12:07:54;101030.72;;;26.07;49.63
80323;BME280;69636;52.372;13.610;2023-06-19T12:10:23;101026.28;;;26.18;49.28
80323;BME280;69636;52.372;13.610;2023-06-19T12:12:50;101026.94;;;26.08;49.58
80323;BME280;69636;52.372;13.610;2023-06-19T12:15:17;101019.84;;;26.24;47.61
80323;BME280;69636;52.372;13.610;2023-06-19T12:17:48;101025.84;;;26.43;48.20
80323;BME280;69636;52.372;13.610;2023-06-19T12:20:15;101030.16;;;26.60;47.16
80323;BME280;69636;52.372;13.610;2023-06-19T12:22:43;101028.13;;;26.73;46.84
80323;BME280;69636;52.372;13.610;2023-06-19T12:25:12;101025.06;;;27.13;45.93
80323;BME280;69636;52.372;13.610;2023-06-19T12:27:41;101031.88;;;27.37;45.35
80323;BME280;69636;52.372;13.610;2023-06-19T12:30:09;101021.78;;;27.64;45.37
80323;BME280;69636;52.372;13.610;2023-06-19T12:32:38;101024.47;;;27.59;44.00
80323;BME280;69636;52.372;13.610;2023-06-19T12:35:06;101031.88;;;27.96;44.28
80323;BME280;69636;52.372;13.610;2023-06-19T12:37:34;101022.16;;;28.57;43.25
80323;BME280;69636;52.372;13.610;2023-06-19T12:40:02;101023.16;;;28.98;42.92
80323;BME280;69636;52.372;13.610;2023-06-19T12:42:29;101019.31;;;28.94;43.40
80323;BME280;69636;52.372;13.610;2023-06-19T12:44:58;101020.94;;;28.90;41.77
80323;BME280;69636;52.372;13.610;2023-06-19T12:47:25;101026.97;;;28.92;42.25
80323;BME280;69636;52.372;13.610;2023-06-19T12:49:52;101018.88;;;29.33;40.02